Startpagina
METAR-TAF:

METAR-TAF

Vliegvelden :

K14-fa-1c, Nederland

Productieplatform

breedte: 53-16-10N, lengte: 3-37-40E, hoogte: 28 m

Actueel weer

Dit bericht is 23 minuten geleden gemaakt, om 18:55 UTC
Wind 15 kt uit het oosten
Temperatuur 15°C
Vochtigheid 77%
Druk 1015 hPa
Zicht 10 km of meer

METAR: EHKV 221855Z AUTO 10015KT 9999 NSC 15/11 Q1015

Tijdstip: 21:18 (19:18 UTC)


TAF: ontbreekt

Waarnemingen en weersverwachtingen van meer dan 4000 vliegvelden (METAR en TAF).

De beschikbare stations zijn de gele en rode punten op de kaart.

Ga met uw muis naar het station om de naam te zien.

Klik dan om waarnemingen en weersverwachtingen te zien.

kaart wijzigen: klik op de groene knoppen met een zwart kruis om in te zoomen, op de groene knop met een streepje om uit te zoomen of op de groene pijlen voor aangrenzende kaarten.


METAR-TAF: